Time;durP1;ratioP1;P1;durP2;ratioP2;P2;SDS_P1;SDS_P2;PMS_P1;PMS_P2;Temp;Humidity;BMP_temperature;BMP_pressure;BME280_temperature;BME280_humidity;BME280_pressure;Samples;Min_cycle;Max_cycle;Signal;HPM_P1;HPM_P2
2023/09/27 00:00:15;;;;;;;2.92;2.10;;;;;;;;;;5062267;28;20039;-83
2023/09/27 00:02:42;;;;;;;3.13;2.58;;;;;;;;;;5063724;28;20033;-83
2023/09/27 00:05:10;;;;;;;3.88;2.50;;;;;;;;;;5055236;28;20048;-83
2023/09/27 00:07:37;;;;;;;6.03;2.90;;;;;;;;;;5075161;28;20033;-82
2023/09/27 00:10:04;;;;;;;3.00;2.47;;;;;;;;;;5073194;28;20294;-83
2023/09/27 00:12:29;;;;;;;3.60;2.30;;;;;;;;;;5078776;28;20044;-83
2023/09/27 00:14:56;;;;;;;2.92;2.40;;;;;;;;;;5076014;28;20025;-84
2023/09/27 00:17:22;;;;;;;4.88;2.97;;;;;;;;;;5080858;28;20021;-83
2023/09/27 00:19:47;;;;;;;2.65;2.42;;;;;;;;;;5065242;28;20051;-84
2023/09/27 00:22:13;;;;;;;4.07;2.78;;;;;;;;;;5076646;28;20025;-84
2023/09/27 00:24:39;;;;;;;4.93;2.47;;;;;;;;;;5063924;28;20032;-84
2023/09/27 00:27:04;;;;;;;4.88;2.83;;;;;;;;;;5073567;28;20061;-82
2023/09/27 00:29:29;;;;;;;3.00;2.50;;;;;;;;;;5097688;28;20496;-85
2023/09/27 00:31:55;;;;;;;3.17;2.65;;;;;;;;;;5098048;28;20605;-85
2023/09/27 00:34:20;;;;;;;4.60;2.70;;;;;;;;;;5094735;28;20025;-85
2023/09/27 00:36:46;;;;;;;5.07;3.15;;;;;;;;;;5083735;28;20028;-84
2023/09/27 00:39:11;;;;;;;3.15;2.47;;;;;;;;;;5085598;28;20021;-83
2023/09/27 00:41:36;;;;;;;4.05;2.47;;;;;;;;;;5088698;28;20487;-84
2023/09/27 00:44:02;;;;;;;3.47;2.47;;;;;;;;;;5077650;28;20013;-83
2023/09/27 00:46:27;;;;;;;3.40;2.60;;;;;;;;;;5071289;28;20437;-84
2023/09/27 00:48:54;;;;;;;4.93;2.85;;;;;;;;;;5071093;28;20082;-83
2023/09/27 00:51:19;;;;;;;3.95;2.70;;;;;;;;;;5085070;28;20052;-82
2023/09/27 00:53:48;;;;;;;3.00;2.38;;;;;;;;;;5067700;28;20116;-83
2023/09/27 00:56:14;;;;;;;3.58;2.45;;;;;;;;;;5066806;28;20032;-82
2023/09/27 00:58:39;;;;;;;3.60;2.75;;;;;;;;;;5065814;28;20039;-83
2023/09/27 01:01:05;;;;;;;4.15;2.70;;;;;;;;;;5081156;28;20091;-82
2023/09/27 01:03:32;;;;;;;3.58;2.72;;;;;;;;;;5087510;28;20024;-84
2023/09/27 01:05:58;;;;;;;5.13;2.67;;;;;;;;;;5066686;28;20032;-83
2023/09/27 01:08:23;;;;;;;4.88;2.80;;;;;;;;;;5072628;28;20447;-84
2023/09/27 01:10:48;;;;;;;3.55;2.75;;;;;;;;;;5077139;28;20071;-82
2023/09/27 01:13:14;;;;;;;5.82;3.20;;;;;;;;;;5077535;28;20112;-83
2023/09/27 01:15:40;;;;;;;3.65;2.92;;;;;;;;;;5095124;28;20009;-86
2023/09/27 01:18:05;;;;;;;4.00;2.97;;;;;;;;;;5105070;28;20020;-86
2023/09/27 01:20:34;;;;;;;2.53;2.33;;;;;;;;;;5078193;28;20107;-83
2023/09/27 01:23:05;;;;;;;3.28;2.80;;;;;;;;;;5071470;28;20017;-84
2023/09/27 01:25:35;;;;;;;3.80;2.80;;;;;;;;;;5071768;28;20042;-83
2023/09/27 01:28:09;;;;;;;2.20;1.92;;;;;;;;;;5082020;28;20020;-84
2023/09/27 01:30:36;;;;;;;3.67;2.45;;;;;;;;;;5092662;28;20051;-84
2023/09/27 01:33:06;;;;;;;3.30;2.53;;;;;;;;;;5080029;28;20027;-83
2023/09/27 01:35:36;;;;;;;3.10;2.38;;;;;;;;;;5068694;28;20016;-82
2023/09/27 01:38:03;;;;;;;5.97;2.40;;;;;;;;;;5073278;28;20037;-81
2023/09/27 01:40:31;;;;;;;2.50;2.22;;;;;;;;;;5065279;28;20031;-82
2023/09/27 01:43:02;;;;;;;6.43;2.75;;;;;;;;;;5060712;28;20101;-83
2023/09/27 01:45:31;;;;;;;5.55;2.88;;;;;;;;;;5073988;28;20120;-83
2023/09/27 01:47:57;;;;;;;2.78;2.50;;;;;;;;;;5067316;28;20483;-82
2023/09/27 01:50:27;;;;;;;4.68;2.53;;;;;;;;;;5072747;28;20103;-83
2023/09/27 01:52:55;;;;;;;3.35;2.65;;;;;;;;;;5059036;28;20029;-82
2023/09/27 01:55:21;;;;;;;6.38;2.75;;;;;;;;;;5066925;28;20609;-83
2023/09/27 01:57:46;;;;;;;3.90;2.78;;;;;;;;;;5066350;28;20383;-83
2023/09/27 02:00:17;;;;;;;3.25;2.45;;;;;;;;;;5082953;28;20520;-82
2023/09/27 02:02:51;;;;;;;9.65;2.95;;;;;;;;;;5085682;28;20367;-83
2023/09/27 02:05:17;;;;;;;4.63;3.03;;;;;;;;;;5074416;28;20116;-82
2023/09/27 02:07:43;;;;;;;3.90;3.13;;;;;;;;;;5088625;28;20040;-82
2023/09/27 02:10:09;;;;;;;4.65;2.95;;;;;;;;;;5053269;28;20016;-83
2023/09/27 02:12:36;;;;;;;3.67;2.95;;;;;;;;;;5067257;28;20275;-83
2023/09/27 02:15:01;;;;;;;3.88;3.38;;;;;;;;;;5059558;28;20029;-83
2023/09/27 02:17:27;;;;;;;3.17;2.45;;;;;;;;;;5091485;28;20096;-83
2023/09/27 02:19:52;;;;;;;3.17;2.50;;;;;;;;;;5066264;28;20088;-83
2023/09/27 02:22:18;;;;;;;3.35;2.47;;;;;;;;;;5062372;28;20098;-83
2023/09/27 02:24:44;;;;;;;3.78;2.47;;;;;;;;;;5079403;28;20032;-82
2023/09/27 02:27:10;;;;;;;3.70;2.78;;;;;;;;;;5062686;28;20493;-82
2023/09/27 02:29:40;;;;;;;3.28;2.53;;;;;;;;;;5059065;28;20074;-82
2023/09/27 02:32:06;;;;;;;4.43;2.83;;;;;;;;;;5067314;28;20027;-82
2023/09/27 02:34:32;;;;;;;3.13;2.40;;;;;;;;;;5073279;28;20028;-82
2023/09/27 02:36:58;;;;;;;4.80;3.00;;;;;;;;;;5079753;28;20028;-83
2023/09/27 02:39:25;;;;;;;3.60;2.83;;;;;;;;;;5074653;28;20028;-82
2023/09/27 02:41:50;;;;;;;2.58;2.33;;;;;;;;;;5082180;28;20029;-83
2023/09/27 02:44:15;;;;;;;4.00;3.15;;;;;;;;;;5068748;28;20368;-83
2023/09/27 02:46:41;;;;;;;3.20;2.55;;;;;;;;;;5073691;28;20024;-82
2023/09/27 02:49:07;;;;;;;4.53;2.70;;;;;;;;;;5061854;28;20649;-84
2023/09/27 02:51:32;;;;;;;4.95;2.65;;;;;;;;;;5075211;28;20024;-82
2023/09/27 02:53:58;;;;;;;4.20;2.70;;;;;;;;;;5079675;28;20067;-83
2023/09/27 02:56:23;;;;;;;8.80;2.83;;;;;;;;;;5063545;28;20104;-83
2023/09/27 02:58:49;;;;;;;6.50;2.55;;;;;;;;;;5078492;28;20028;-82
2023/09/27 03:01:14;;;;;;;3.80;2.85;;;;;;;;;;5069874;28;20036;-84
2023/09/27 03:03:40;;;;;;;4.22;3.05;;;;;;;;;;5070848;28;20036;-83
2023/09/27 03:06:12;;;;;;;3.13;2.75;;;;;;;;;;5082089;28;20037;-83
2023/09/27 03:08:39;;;;;;;4.10;3.10;;;;;;;;;;5089151;28;20051;-83
2023/09/27 03:11:05;;;;;;;4.53;2.95;;;;;;;;;;5069601;28;20136;-84
2023/09/27 03:13:30;;;;;;;3.45;2.95;;;;;;;;;;5087356;28;20052;-82
2023/09/27 03:15:56;;;;;;;3.75;2.97;;;;;;;;;;5073632;28;20058;-83
2023/09/27 03:18:22;;;;;;;7.40;3.40;;;;;;;;;;5076556;28;20084;-83
2023/09/27 03:20:47;;;;;;;3.90;3.15;;;;;;;;;;5072616;28;20458;-85
2023/09/27 03:23:13;;;;;;;5.07;3.80;;;;;;;;;;5090061;28;20028;-82
2023/09/27 03:25:38;;;;;;;4.07;2.95;;;;;;;;;;5081726;28;20597;-84
2023/09/27 03:28:04;;;;;;;5.32;3.33;;;;;;;;;;5067913;28;20020;-84
2023/09/27 03:30:30;;;;;;;4.47;2.92;;;;;;;;;;5067823;28;20017;-84
2023/09/27 03:32:55;;;;;;;5.35;3.10;;;;;;;;;;5074585;28;20033;-83
2023/09/27 03:35:21;;;;;;;5.70;3.15;;;;;;;;;;5063000;28;20023;-84
2023/09/27 03:37:47;;;;;;;7.40;3.58;;;;;;;;;;5066457;28;20036;-85
2023/09/27 03:40:13;;;;;;;3.42;2.70;;;;;;;;;;5069062;28;20059;-83
2023/09/27 03:42:46;;;;;;;2.75;2.55;;;;;;;;;;5070836;28;20059;-85
2023/09/27 03:45:13;;;;;;;3.95;2.60;;;;;;;;;;5087495;28;20047;-83
2023/09/27 03:47:38;;;;;;;2.88;2.40;;;;;;;;;;5082230;28;20031;-83
2023/09/27 03:50:04;;;;;;;3.28;2.38;;;;;;;;;;5072588;28;20020;-86
2023/09/27 03:52:30;;;;;;;3.35;2.63;;;;;;;;;;5093548;28;20074;-85
2023/09/27 03:54:55;;;;;;;3.88;2.63;;;;;;;;;;5084556;28;20048;-83
2023/09/27 03:57:20;;;;;;;4.38;3.30;;;;;;;;;;5075515;28;20502;-84
2023/09/27 03:59:46;;;;;;;3.90;2.85;;;;;;;;;;5067432;28;20028;-85
2023/09/27 04:02:11;;;;;;;5.47;2.78;;;;;;;;;;5092836;28;20035;-84
2023/09/27 04:04:36;;;;;;;3.38;2.60;;;;;;;;;;5087797;28;20028;-83
2023/09/27 04:07:02;;;;;;;4.18;2.78;;;;;;;;;;5070338;28;20020;-83
2023/09/27 04:09:27;;;;;;;5.03;3.10;;;;;;;;;;5073439;28;20028;-84
2023/09/27 04:11:53;;;;;;;5.93;2.95;;;;;;;;;;5071681;28;20033;-84
2023/09/27 04:14:18;;;;;;;3.42;2.50;;;;;;;;;;5088352;28;20051;-81
2023/09/27 04:16:43;;;;;;;3.47;2.30;;;;;;;;;;5065284;28;20029;-83
2023/09/27 04:19:09;;;;;;;3.10;2.40;;;;;;;;;;5067898;28;20021;-84
2023/09/27 04:21:34;;;;;;;4.20;3.45;;;;;;;;;;5075185;28;20025;-83
2023/09/27 04:23:59;;;;;;;4.75;2.78;;;;;;;;;;5079841;28;20009;-80
2023/09/27 04:26:25;;;;;;;6.25;2.85;;;;;;;;;;5080715;28;20017;-85
2023/09/27 04:28:52;;;;;;;3.92;2.75;;;;;;;;;;5074634;28;20032;-85
2023/09/27 04:31:18;;;;;;;4.18;2.88;;;;;;;;;;5076030;28;20035;-84
2023/09/27 04:33:44;;;;;;;5.53;3.25;;;;;;;;;;5071611;28;20033;-84
2023/09/27 04:36:17;;;;;;;2.92;2.50;;;;;;;;;;5079298;28;20032;-82
2023/09/27 04:38:44;;;;;;;6.07;3.38;;;;;;;;;;5073117;28;20028;-84
2023/09/27 04:41:10;;;;;;;5.20;3.42;;;;;;;;;;5082673;28;20495;-85
2023/09/27 04:43:35;;;;;;;3.33;2.78;;;;;;;;;;5088106;28;20107;-84
2023/09/27 04:46:01;;;;;;;3.75;2.72;;;;;;;;;;5076097;28;20088;-83
2023/09/27 04:48:26;;;;;;;4.28;2.47;;;;;;;;;;5060400;28;20032;-85
2023/09/27 04:50:52;;;;;;;3.47;2.88;;;;;;;;;;5068663;28;20029;-84
2023/09/27 04:53:17;;;;;;;5.63;2.65;;;;;;;;;;5070806;28;20099;-84
2023/09/27 04:55:42;;;;;;;3.97;3.10;;;;;;;;;;5074216;28;20044;-85
2023/09/27 04:58:07;;;;;;;4.07;2.25;;;;;;;;;;5075031;28;20029;-85
2023/09/27 05:00:33;;;;;;;3.45;2.47;;;;;;;;;;5081394;28;20035;-85
2023/09/27 05:02:58;;;;;;;2.88;2.20;;;;;;;;;;5078617;28;20021;-81
2023/09/27 05:05:24;;;;;;;4.07;3.00;;;;;;;;;;5082745;28;20024;-83
2023/09/27 05:07:49;;;;;;;4.22;2.70;;;;;;;;;;5094885;28;20608;-85
2023/09/27 05:10:15;;;;;;;3.22;2.72;;;;;;;;;;5081762;28;20142;-83
2023/09/27 05:12:40;;;;;;;5.00;2.90;;;;;;;;;;5081581;28;20039;-84
2023/09/27 05:15:07;;;;;;;3.22;2.35;;;;;;;;;;5080054;28;20032;-84
2023/09/27 05:17:33;;;;;;;3.22;2.88;;;;;;;;;;5088340;28;20585;-84
2023/09/27 05:19:59;;;;;;;4.15;2.67;;;;;;;;;;5087582;28;20074;-87
2023/09/27 05:22:24;;;;;;;6.20;3.17;;;;;;;;;;5084322;28;20028;-84
2023/09/27 05:24:49;;;;;;;3.90;2.83;;;;;;;;;;5070717;28;20061;-83
2023/09/27 05:27:15;;;;;;;6.10;3.97;;;;;;;;;;5082017;28;20445;-83
2023/09/27 05:29:40;;;;;;;4.53;2.60;;;;;;;;;;5083254;28;20520;-84
2023/09/27 05:32:07;;;;;;;3.15;2.70;;;;;;;;;;5095578;28;20040;-85
2023/09/27 05:34:33;;;;;;;4.03;2.92;;;;;;;;;;5093923;28;20040;-84
2023/09/27 05:36:59;;;;;;;4.13;2.65;;;;;;;;;;5047347;28;20036;-84
2023/09/27 05:39:25;;;;;;;4.47;2.90;;;;;;;;;;5066618;28;20028;-81
2023/09/27 05:41:51;;;;;;;4.03;2.67;;;;;;;;;;5066918;28;20036;-86
2023/09/27 05:44:16;;;;;;;4.35;2.90;;;;;;;;;;5068945;28;20024;-84
2023/09/27 05:46:41;;;;;;;7.47;3.05;;;;;;;;;;5068790;28;20028;-85
2023/09/27 05:49:11;;;;;;;5.60;2.90;;;;;;;;;;5071454;28;20059;-86
2023/09/27 05:51:36;;;;;;;2.72;2.47;;;;;;;;;;5089652;28;20034;-84
2023/09/27 05:54:02;;;;;;;4.60;2.40;;;;;;;;;;5068393;28;20064;-84
2023/09/27 05:56:28;;;;;;;4.50;3.05;;;;;;;;;;5075060;28;20031;-84
2023/09/27 05:58:54;;;;;;;4.68;2.60;;;;;;;;;;5069718;28;20094;-85
2023/09/27 06:01:19;;;;;;;2.30;1.95;;;;;;;;;;5085444;28;20024;-85
2023/09/27 06:03:49;;;;;;;5.05;2.95;;;;;;;;;;5080526;28;20024;-85
2023/09/27 06:06:14;;;;;;;6.07;3.35;;;;;;;;;;5085327;28;20024;-83
2023/09/27 06:08:40;;;;;;;4.43;2.88;;;;;;;;;;5074376;28;20544;-84
2023/09/27 06:11:07;;;;;;;4.13;2.72;;;;;;;;;;5077324;28;20056;-84
2023/09/27 06:13:32;;;;;;;3.67;2.83;;;;;;;;;;5084319;28;20025;-83
2023/09/27 06:16:00;;;;;;;5.78;3.53;;;;;;;;;;5068998;28;20031;-83
2023/09/27 06:18:26;;;;;;;3.20;2.58;;;;;;;;;;5086286;28;20021;-84
2023/09/27 06:20:52;;;;;;;2.85;2.53;;;;;;;;;;5095092;28;20013;-85
2023/09/27 06:23:19;;;;;;;5.32;2.80;;;;;;;;;;5101288;28;20091;-86
2023/09/27 06:25:48;;;;;;;3.88;3.03;;;;;;;;;;5101318;28;20035;-82
2023/09/27 06:28:13;;;;;;;4.72;3.05;;;;;;;;;;5093425;28;20025;-83
2023/09/27 06:30:42;;;;;;;5.45;2.95;;;;;;;;;;5077215;28;20032;-84
2023/09/27 06:33:09;;;;;;;4.35;3.08;;;;;;;;;;5081433;28;20032;-85
2023/09/27 06:35:36;;;;;;;4.93;2.92;;;;;;;;;;5073057;28;20029;-83
2023/09/27 06:38:02;;;;;;;4.72;3.00;;;;;;;;;;5089415;28;20024;-85
2023/09/27 06:40:29;;;;;;;8.23;2.97;;;;;;;;;;5087048;28;20020;-83
2023/09/27 06:42:55;;;;;;;8.40;2.95;;;;;;;;;;5083145;28;20383;-86
2023/09/27 06:45:21;;;;;;;4.72;3.33;;;;;;;;;;5095116;28;20586;-84
2023/09/27 06:47:46;;;;;;;4.78;3.10;;;;;;;;;;5069313;28;20039;-83
2023/09/27 06:50:12;;;;;;;7.05;2.78;;;;;;;;;;5072075;28;20024;-86
2023/09/27 06:52:39;;;;;;;5.00;3.10;;;;;;;;;;5079628;28;20402;-85
2023/09/27 06:55:19;;;;;;;5.10;2.83;;;;;;;;;;5065259;28;20048;-87
2023/09/27 06:57:46;;;;;;;7.05;2.85;;;;;;;;;;5075060;28;20483;-83
2023/09/27 07:00:18;;;;;;;4.22;3.00;;;;;;;;;;5075558;28;20752;-85
2023/09/27 07:02:50;;;;;;;4.25;2.65;;;;;;;;;;5072090;28;20031;-85
2023/09/27 07:05:21;;;;;;;3.72;2.85;;;;;;;;;;5072175;28;20115;-85
2023/09/27 07:07:50;;;;;;;5.55;3.00;;;;;;;;;;5090568;28;20025;-84
2023/09/27 07:10:16;;;;;;;3.47;2.88;;;;;;;;;;5083909;28;20058;-85
2023/09/27 07:12:41;;;;;;;4.03;2.85;;;;;;;;;;5089025;28;20031;-81
2023/09/27 07:15:12;;;;;;;3.25;2.70;;;;;;;;;;5070256;28;20075;-86
2023/09/27 07:17:48;;;;;;;4.60;2.85;;;;;;;;;;5083629;28;20031;-82
2023/09/27 07:20:27;;;;;;;2.53;2.33;;;;;;;;;;5065402;28;20055;-83
2023/09/27 07:22:54;;;;;;;4.65;3.00;;;;;;;;;;5068962;28;20032;-84
2023/09/27 07:25:20;;;;;;;4.53;2.63;;;;;;;;;;5072125;28;20031;-85
2023/09/27 07:27:50;;;;;;;5.18;2.60;;;;;;;;;;5076281;28;20063;-83
2023/09/27 07:30:20;;;;;;;5.00;2.80;;;;;;;;;;5063966;28;20395;-83
2023/09/27 07:32:46;;;;;;;4.00;2.97;;;;;;;;;;5055300;28;20020;-82
2023/09/27 07:35:14;;;;;;;5.70;3.58;;;;;;;;;;5076913;28;20028;-83
2023/09/27 07:37:39;;;;;;;4.75;2.70;;;;;;;;;;5065911;28;20111;-82
2023/09/27 07:40:32;;;;;;;4.43;3.20;;;;;;;;;;5072762;28;20078;-82
2023/09/27 07:42:58;;;;;;;4.00;2.55;;;;;;;;;;5061584;28;20051;-84
2023/09/27 07:45:28;;;;;;;6.97;2.88;;;;;;;;;;5086309;28;20028;-83
2023/09/27 07:47:54;;;;;;;5.35;3.28;;;;;;;;;;5068396;28;20047;-82
2023/09/27 07:50:31;;;;;;;5.00;2.95;;;;;;;;;;5074920;28;20398;-82
2023/09/27 07:53:03;;;;;;;4.28;3.10;;;;;;;;;;5070587;28;20781;-83
2023/09/27 07:55:32;;;;;;;3.38;2.90;;;;;;;;;;5074188;28;20031;-83
2023/09/27 07:57:58;;;;;;;6.95;2.70;;;;;;;;;;5074240;28;20093;-83
2023/09/27 08:00:28;;;;;;;5.30;2.88;;;;;;;;;;5063929;28;20056;-83
2023/09/27 08:02:55;;;;;;;3.88;2.97;;;;;;;;;;5065944;28;20032;-84
2023/09/27 08:05:22;;;;;;;3.95;2.90;;;;;;;;;;5066734;28;20028;-83
2023/09/27 08:07:48;;;;;;;6.18;2.97;;;;;;;;;;5069701;28;20419;-83
2023/09/27 08:10:15;;;;;;;5.32;2.72;;;;;;;;;;5063589;28;20647;-84
2023/09/27 08:12:41;;;;;;;3.40;2.60;;;;;;;;;;5061156;28;20024;-83
2023/09/27 08:15:07;;;;;;;7.05;3.50;;;;;;;;;;5066836;28;20060;-84
2023/09/27 08:17:33;;;;;;;6.97;3.60;;;;;;;;;;5064703;28;20027;-82
2023/09/27 08:19:59;;;;;;;4.45;2.75;;;;;;;;;;5077157;28;20032;-83
2023/09/27 08:22:25;;;;;;;4.43;2.90;;;;;;;;;;5068004;28;20099;-83
2023/09/27 08:24:51;;;;;;;6.90;3.17;;;;;;;;;;5057868;28;20047;-83
2023/09/27 08:27:17;;;;;;;5.13;2.78;;;;;;;;;;5075705;28;20036;-82
2023/09/27 08:29:43;;;;;;;4.88;2.88;;;;;;;;;;5078269;28;20021;-83
2023/09/27 08:32:08;;;;;;;4.38;2.65;;;;;;;;;;5071899;28;20050;-84
2023/09/27 08:34:35;;;;;;;3.58;2.90;;;;;;;;;;5072525;28;20115;-82
2023/09/27 08:37:00;;;;;;;4.57;2.92;;;;;;;;;;5079675;28;20124;-83
2023/09/27 08:39:30;;;;;;;6.20;3.05;;;;;;;;;;5065842;28;20052;-84
2023/09/27 08:41:58;;;;;;;4.78;2.70;;;;;;;;;;5060492;28;20024;-83
2023/09/27 08:44:24;;;;;;;4.40;2.67;;;;;;;;;;5075168;28;20017;-83
2023/09/27 08:46:51;;;;;;;4.05;2.60;;;;;;;;;;5054068;28;20633;-83
2023/09/27 08:49:17;;;;;;;5.55;2.40;;;;;;;;;;5066724;28;20029;-83
2023/09/27 08:51:45;;;;;;;4.80;2.70;;;;;;;;;;5057691;28;20024;-83
2023/09/27 08:54:12;;;;;;;4.20;2.90;;;;;;;;;;5069607;28;20043;-83
2023/09/27 08:56:37;;;;;;;10.77;5.30;;;;;;;;;;5073908;28;20028;-83
2023/09/27 08:59:04;;;;;;;8.65;4.32;;;;;;;;;;5068410;28;20025;-83
2023/09/27 09:01:32;;;;;;;4.97;2.92;;;;;;;;;;5064012;28;20029;-84
2023/09/27 09:03:59;;;;;;;3.55;2.63;;;;;;;;;;5073467;28;20029;-84
2023/09/27 09:06:24;;;;;;;6.22;2.47;;;;;;;;;;5087967;28;20628;-84
2023/09/27 09:08:50;;;;;;;2.60;2.30;;;;;;;;;;5078734;28;20021;-85
2023/09/27 09:11:18;;;;;;;2.35;2.10;;;;;;;;;;5068348;28;20020;-84
2023/09/27 09:13:56;;;;;;;2.15;1.77;;;;;;;;;;5064991;28;20040;-85
2023/09/27 09:16:23;;;;;;;2.85;2.03;;;;;;;;;;5066920;28;20032;-85
2023/09/27 09:18:52;;;;;;;4.93;2.20;;;;;;;;;;5064221;28;20660;-84
2023/09/27 09:21:19;;;;;;;5.20;1.90;;;;;;;;;;5069219;28;20060;-83
2023/09/27 09:23:49;;;;;;;5.68;2.13;;;;;;;;;;5078764;28;20017;-84
2023/09/27 09:26:26;;;;;;;4.47;2.17;;;;;;;;;;5083559;28;20232;-83
2023/09/27 09:29:02;;;;;;;2.28;1.67;;;;;;;;;;5069383;28;20040;-84
2023/09/27 09:31:30;;;;;;;3.67;2.70;;;;;;;;;;5068201;28;20033;-83
2023/09/27 09:34:06;;;;;;;2.30;1.92;;;;;;;;;;5055330;28;20100;-85
2023/09/27 09:36:32;;;;;;;2.70;1.73;;;;;;;;;;5078637;28;20086;-84
2023/09/27 09:39:14;;;;;;;2.65;2.30;;;;;;;;;;5075799;28;20092;-84
2023/09/27 09:41:47;;;;;;;2.70;1.85;;;;;;;;;;5090624;28;20443;-84
2023/09/27 09:44:24;;;;;;;4.28;2.00;;;;;;;;;;5086424;28;20048;-83
2023/09/27 09:46:51;;;;;;;4.28;2.03;;;;;;;;;;5069957;28;20032;-84
2023/09/27 09:49:17;;;;;;;2.88;2.03;;;;;;;;;;5071363;28;20024;-82
2023/09/27 09:51:48;;;;;;;5.63;1.85;;;;;;;;;;5084623;28;20035;-87
2023/09/27 09:54:26;;;;;;;2.60;1.60;;;;;;;;;;5088555;28;20065;-84
2023/09/27 09:56:52;;;;;;;5.47;2.38;;;;;;;;;;5069526;28;20275;-83
2023/09/27 09:59:22;;;;;;;3.83;2.13;;;;;;;;;;5075916;28;20573;-84
2023/09/27 10:01:48;;;;;;;4.97;1.73;;;;;;;;;;5077637;28;20111;-83
2023/09/27 10:04:15;;;;;;;5.50;2.17;;;;;;;;;;5065913;28;20021;-85
2023/09/27 10:06:41;;;;;;;4.07;2.03;;;;;;;;;;5091277;28;20032;-81
2023/09/27 10:09:13;;;;;;;3.97;2.33;;;;;;;;;;5086123;28;20039;-84
2023/09/27 10:11:40;;;;;;;3.45;2.00;;;;;;;;;;5081469;28;20027;-83
2023/09/27 10:14:09;;;;;;;3.17;1.98;;;;;;;;;;5066314;28;20024;-83
2023/09/27 10:16:34;;;;;;;4.00;1.75;;;;;;;;;;5068858;28;20430;-82
2023/09/27 10:19:00;;;;;;;3.08;1.85;;;;;;;;;;5067044;28;20028;-83
2023/09/27 10:21:26;;;;;;;1.75;1.27;;;;;;;;;;5036530;28;1150033;-82
2023/09/27 10:23:55;;;;;;;1.92;1.70;;;;;;;;;;5071153;28;20024;-81
2023/09/27 10:26:27;;;;;;;2.33;2.13;;;;;;;;;;5064381;28;20026;-81
2023/09/27 10:29:10;;;;;;;1.73;1.63;;;;;;;;;;5066465;28;20040;-81
2023/09/27 10:31:38;;;;;;;2.67;1.60;;;;;;;;;;5072067;28;20043;-81
2023/09/27 10:34:26;;;;;;;2.13;1.50;;;;;;;;;;5079080;28;20025;-82
2023/09/27 10:36:55;;;;;;;1.65;1.40;;;;;;;;;;5068378;28;20032;-82
2023/09/27 10:39:21;;;;;;;3.40;1.95;;;;;;;;;;5072253;28;20020;-81
2023/09/27 10:41:49;;;;;;;1.67;1.50;;;;;;;;;;5073288;28;20029;-82
2023/09/27 10:44:33;;;;;;;1.65;1.40;;;;;;;;;;5082993;28;20021;-80
2023/09/27 10:47:03;;;;;;;1.70;1.60;;;;;;;;;;5069981;28;20020;-84
2023/09/27 10:49:38;;;;;;;1.48;1.38;;;;;;;;;;5065127;28;20017;-82
2023/09/27 10:52:13;;;;;;;1.42;1.33;;;;;;;;;;5083447;28;20008;-82
2023/09/27 10:54:38;;;;;;;1.52;1.42;;;;;;;;;;5090926;28;20012;-81
2023/09/27 10:57:04;;;;;;;1.48;1.35;;;;;;;;;;5080941;28;20012;-82
2023/09/27 10:59:29;;;;;;;1.95;1.40;;;;;;;;;;5085955;28;20020;-82
2023/09/27 11:01:55;;;;;;;1.20;1.15;;;;;;;;;;5093268;28;20027;-85
2023/09/27 11:04:22;;;;;;;3.08;1.60;;;;;;;;;;5104657;28;20001;-85
2023/09/27 11:06:49;;;;;;;1.98;1.38;;;;;;;;;;5085769;28;20575;-81
2023/09/27 11:09:16;;;;;;;1.88;1.65;;;;;;;;;;5067288;28;20059;-82
2023/09/27 11:11:43;;;;;;;1.60;1.45;;;;;;;;;;5069456;28;20595;-82
2023/09/27 11:14:09;;;;;;;1.27;1.10;;;;;;;;;;5066226;28;20914;-82
2023/09/27 11:16:35;;;;;;;1.40;1.30;;;;;;;;;;5083036;28;20033;-82
2023/09/27 11:19:02;;;;;;;2.67;1.33;;;;;;;;;;5077674;28;20068;-82
2023/09/27 11:21:28;;;;;;;1.33;1.20;;;;;;;;;;5070380;28;20036;-82
2023/09/27 11:23:58;;;;;;;1.98;0.95;;;;;;;;;;5070914;28;20020;-81
2023/09/27 11:26:24;;;;;;;1.55;1.33;;;;;;;;;;5072370;28;20043;-82
2023/09/27 11:29:06;;;;;;;1.13;1.00;;;;;;;;;;5086333;28;20062;-83
2023/09/27 11:31:32;;;;;;;1.77;1.23;;;;;;;;;;5093146;28;20032;-82
2023/09/27 11:34:21;;;;;;;0.82;0.73;;;;;;;;;;5066270;28;20032;-81
2023/09/27 11:36:51;;;;;;;0.70;0.70;;;;;;;;;;5077856;28;20383;-81
2023/09/27 11:39:18;;;;;;;3.47;1.00;;;;;;;;;;5078628;28;20031;-81
2023/09/27 11:41:45;;;;;;;2.95;0.98;;;;;;;;;;5075552;28;20059;-81
2023/09/27 11:44:24;;;;;;;0.90;0.90;;;;;;;;;;5072371;28;20494;-82
2023/09/27 11:46:51;;;;;;;2.65;1.30;;;;;;;;;;5086908;28;20032;-80
2023/09/27 11:49:18;;;;;;;1.48;0.98;;;;;;;;;;5074293;28;20024;-81
2023/09/27 11:51:44;;;;;;;1.05;0.95;;;;;;;;;;5074749;28;20040;-81
2023/09/27 11:54:12;;;;;;;1.17;1.08;;;;;;;;;;5071244;28;20032;-82
2023/09/27 11:56:38;;;;;;;3.25;1.17;;;;;;;;;;5068893;28;20271;-81
2023/09/27 11:59:03;;;;;;;1.80;1.13;;;;;;;;;;5081533;28;20744;-80
2023/09/27 12:01:29;;;;;;;1.05;0.95;;;;;;;;;;5068114;28;20430;-82
2023/09/27 12:03:54;;;;;;;0.93;0.93;;;;;;;;;;5064591;28;20016;-83
2023/09/27 12:06:19;;;;;;;8.52;1.60;;;;;;;;;;5063287;28;20711;-80
2023/09/27 12:08:45;;;;;;;1.10;1.00;;;;;;;;;;5072416;28;20025;-81
2023/09/27 12:11:11;;;;;;;1.02;0.88;;;;;;;;;;5059466;28;20025;-82
2023/09/27 12:13:36;;;;;;;2.05;1.00;;;;;;;;;;5072292;28;20088;-82
2023/09/27 12:16:02;;;;;;;1.27;1.00;;;;;;;;;;5079981;28;20025;-82
2023/09/27 12:18:27;;;;;;;0.70;0.65;;;;;;;;;;5085622;28;20842;-81
2023/09/27 12:20:53;;;;;;;0.98;0.88;;;;;;;;;;5060953;28;20061;-81
2023/09/27 12:23:18;;;;;;;1.33;0.73;;;;;;;;;;5064375;28;20024;-81
2023/09/27 12:25:44;;;;;;;1.88;0.95;;;;;;;;;;5070922;28;20046;-82
2023/09/27 12:28:09;;;;;;;0.90;0.90;;;;;;;;;;5073266;28;20032;-82
2023/09/27 12:30:35;;;;;;;2.58;0.90;;;;;;;;;;5073967;28;20033;-82
2023/09/27 12:33:01;;;;;;;1.13;0.95;;;;;;;;;;5064862;28;20017;-82
2023/09/27 12:35:26;;;;;;;0.80;0.80;;;;;;;;;;5075546;28;20028;-81
2023/09/27 12:37:52;;;;;;;1.13;0.80;;;;;;;;;;5076228;28;20036;-84
2023/09/27 12:40:17;;;;;;;3.97;1.10;;;;;;;;;;5091813;28;20028;-81
2023/09/27 12:42:43;;;;;;;1.30;1.20;;;;;;;;;;5069720;28;20040;-81
2023/09/27 12:45:09;;;;;;;1.13;0.80;;;;;;;;;;5057180;28;20044;-82
2023/09/27 12:47:36;;;;;;;0.88;0.88;;;;;;;;;;5070426;28;20043;-82
2023/09/27 12:50:06;;;;;;;1.33;0.77;;;;;;;;;;5070057;28;20032;-81
2023/09/27 12:52:31;;;;;;;1.05;0.85;;;;;;;;;;5075066;28;20021;-81
2023/09/27 12:54:57;;;;;;;2.22;1.05;;;;;;;;;;5079028;28;20032;-81
2023/09/27 12:57:22;;;;;;;1.40;1.10;;;;;;;;;;5060064;28;20031;-82
2023/09/27 12:59:48;;;;;;;1.40;1.30;;;;;;;;;;5063999;28;20037;-82
2023/09/27 13:02:14;;;;;;;0.90;0.90;;;;;;;;;;5068679;28;20024;-82
2023/09/27 13:04:39;;;;;;;1.10;1.10;;;;;;;;;;5067825;28;20020;-81
2023/09/27 13:07:05;;;;;;;2.03;0.90;;;;;;;;;;5069518;28;20053;-81
2023/09/27 13:09:30;;;;;;;1.20;1.10;;;;;;;;;;5065874;28;20025;-80
2023/09/27 13:11:55;;;;;;;2.70;0.90;;;;;;;;;;5053792;28;20111;-81
2023/09/27 13:14:21;;;;;;;2.67;1.30;;;;;;;;;;5094242;28;20029;-80
2023/09/27 13:16:46;;;;;;;1.63;1.10;;;;;;;;;;5070598;28;20044;-82
2023/09/27 13:19:11;;;;;;;1.65;1.10;;;;;;;;;;5061219;28;20029;-81
2023/09/27 13:21:37;;;;;;;1.33;1.20;;;;;;;;;;5068994;28;20530;-82
2023/09/27 13:24:05;;;;;;;1.40;1.30;;;;;;;;;;5074788;28;20024;-81
2023/09/27 13:26:31;;;;;;;2.30;0.95;;;;;;;;;;5068126;28;20485;-80
2023/09/27 13:28:56;;;;;;;1.40;1.15;;;;;;;;;;5074629;28;20036;-81
2023/09/27 13:31:22;;;;;;;1.27;1.17;;;;;;;;;;5092355;28;20020;-81
2023/09/27 13:33:47;;;;;;;0.82;0.82;;;;;;;;;;5074986;28;20056;-81
2023/09/27 13:36:12;;;;;;;1.25;1.00;;;;;;;;;;5086357;28;20044;-80
2023/09/27 13:38:38;;;;;;;3.03;1.20;;;;;;;;;;5074249;28;20456;-82
2023/09/27 13:41:03;;;;;;;1.95;0.90;;;;;;;;;;5068513;28;20032;-80
2023/09/27 13:43:29;;;;;;;1.13;0.90;;;;;;;;;;5068425;28;20021;-81
2023/09/27 13:45:54;;;;;;;1.10;1.10;;;;;;;;;;5075543;28;20115;-82
2023/09/27 13:48:21;;;;;;;1.00;0.93;;;;;;;;;;5069215;28;20119;-81
2023/09/27 13:50:47;;;;;;;1.00;1.00;;;;;;;;;;5065292;28;20028;-81
2023/09/27 13:53:12;;;;;;;1.83;0.93;;;;;;;;;;5066383;28;20035;-82
2023/09/27 13:55:37;;;;;;;1.65;1.23;;;;;;;;;;5074155;28;20063;-81
2023/09/27 13:58:03;;;;;;;4.72;1.40;;;;;;;;;;5072881;28;20086;-82
2023/09/27 14:00:30;;;;;;;1.10;1.10;;;;;;;;;;5064164;28;20028;-83
2023/09/27 14:02:55;;;;;;;2.15;1.27;;;;;;;;;;5064289;28;20029;-83
2023/09/27 14:05:21;;;;;;;1.65;1.20;;;;;;;;;;5079456;28;20021;-81
2023/09/27 14:07:46;;;;;;;1.35;1.25;;;;;;;;;;5085071;28;20043;-83
2023/09/27 14:10:12;;;;;;;1.00;1.00;;;;;;;;;;5066256;28;20058;-83
2023/09/27 14:12:38;;;;;;;1.15;1.08;;;;;;;;;;5093406;28;20107;-82
2023/09/27 14:15:04;;;;;;;5.25;1.10;;;;;;;;;;5072869;28;20451;-82
2023/09/27 14:17:29;;;;;;;3.25;1.23;;;;;;;;;;5082838;28;20020;-82
2023/09/27 14:19:55;;;;;;;1.63;1.10;;;;;;;;;;5065410;28;20128;-84
2023/09/27 14:22:21;;;;;;;1.40;1.20;;;;;;;;;;5085770;28;20052;-82
2023/09/27 14:24:46;;;;;;;1.05;0.95;;;;;;;;;;5083130;28;20553;-83
2023/09/27 14:27:13;;;;;;;1.30;1.20;;;;;;;;;;5077664;28;20028;-82
2023/09/27 14:29:39;;;;;;;1.45;1.05;;;;;;;;;;5088142;28;20086;-82
2023/09/27 14:32:05;;;;;;;2.55;1.25;;;;;;;;;;5088594;28;20016;-83
2023/09/27 14:34:34;;;;;;;1.38;1.17;;;;;;;;;;5075122;28;20029;-83
2023/09/27 14:37:00;;;;;;;1.23;1.17;;;;;;;;;;5078592;28;20120;-84
2023/09/27 14:39:25;;;;;;;2.00;1.27;;;;;;;;;;5064820;28;20067;-86
2023/09/27 14:41:51;;;;;;;1.05;0.95;;;;;;;;;;5085230;28;20495;-82